world map with HGH marked

HGH - Airport

This information may not be accurate or current and is not valid for navigation or flight planning. No warranty of fitness for any purpose is made or implied.

flag of China

Donate via PayPal

Additional information is available on the NEW Great Circle Mapper

Location
City:  Hangzhou, Zhejiang, China
Name:Xiaoshan International (Jianqiao Airport)
ICAO / IATA:ZSHC / HGH

Details
Type:Airport (Aerodrome, Airfield)
Use:Public/Civil
Latitude:30°14'N (30.228)
Longitude:120°26'E (120.433)
Elevation:23 ft (7 m)
Runways:2
Longest:11811 × 148 ft (3600 × 45 m)

Time
Timezone:UTC+8 (DST+10)
Local Time:

Weather
METAR:ZSHC  041400Z 09002MPS 060V120 5000 -RA BR SCT023 08/06 Q1024 NOSIG
TAF:ZSHC  (expired)

Related Locations
Nearby:
Farthest:RCQ: 12360 mi / 19891 km
Reconquista, S, AR

Find:

   beyond  
but within

Other Information
Maps:
Links:
Sources:

  

Airport Diagram

Airport diagram for HGH

Airport diagram PDF

 


Great Circle Mapper   Great Circle Mapper
Great Circle Mapper FAQ   Great Circle Mapper FAQ
  Karl's Home Page
KLSē   KLSē Home
   GC on Facebook
Airlines of the World   Airlines of the World
Donate via PayPal


Copyright © 2004-2020, Karl L. Swartz. All rights reserved.
All trademarks mentioned herein belong to their respective owners.

Please see credits for attribution and copyright information.

Karl Swartz <karl@kls2.com>
  Powered by FreeBSD
Valid HTML 4.01!
Labeled with ICRA
hCard Microformat
Geo Microformat